sensor_id;sensor_type;location;lat;lon;timestamp;P1;durP1;ratioP1;P2;durP2;ratioP2
6999;SDS011;3540;53.242;10.408;2023-02-26T00:00:11;7.67;;;2.30;;
6999;SDS011;3540;53.242;10.408;2023-02-26T00:02:39;9.30;;;1.90;;
6999;SDS011;3540;53.242;10.408;2023-02-26T00:05:06;5.97;;;1.63;;
6999;SDS011;3540;53.242;10.408;2023-02-26T00:07:32;5.97;;;1.80;;
6999;SDS011;3540;53.242;10.408;2023-02-26T00:09:58;7.37;;;1.97;;
6999;SDS011;3540;53.242;10.408;2023-02-26T00:12:26;3.10;;;1.50;;
6999;SDS011;3540;53.242;10.408;2023-02-26T00:14:52;6.57;;;2.10;;
6999;SDS011;3540;53.242;10.408;2023-02-26T00:20:08;6.60;;;1.90;;
6999;SDS011;3540;53.242;10.408;2023-02-26T00:22:36;5.63;;;2.07;;
6999;SDS011;3540;53.242;10.408;2023-02-26T00:25:03;4.97;;;1.90;;
6999;SDS011;3540;53.242;10.408;2023-02-26T00:27:28;4.03;;;1.73;;
6999;SDS011;3540;53.242;10.408;2023-02-26T00:29:54;7.03;;;1.70;;
6999;SDS011;3540;53.242;10.408;2023-02-26T00:32:20;4.97;;;1.53;;
6999;SDS011;3540;53.242;10.408;2023-02-26T00:34:46;7.63;;;1.60;;
6999;SDS011;3540;53.242;10.408;2023-02-26T00:37:36;5.13;;;1.60;;
6999;SDS011;3540;53.242;10.408;2023-02-26T00:40:21;4.33;;;1.50;;
6999;SDS011;3540;53.242;10.408;2023-02-26T00:42:47;2.90;;;1.40;;
6999;SDS011;3540;53.242;10.408;2023-02-26T00:45:14;4.77;;;1.43;;
6999;SDS011;3540;53.242;10.408;2023-02-26T00:55:36;10.30;;;2.03;;
6999;SDS011;3540;53.242;10.408;2023-02-26T00:58:02;5.63;;;1.70;;
6999;SDS011;3540;53.242;10.408;2023-02-26T01:00:28;5.93;;;1.73;;
6999;SDS011;3540;53.242;10.408;2023-02-26T01:02:54;5.77;;;1.80;;
6999;SDS011;3540;53.242;10.408;2023-02-26T01:05:20;6.47;;;1.60;;
6999;SDS011;3540;53.242;10.408;2023-02-26T01:10:18;5.77;;;1.40;;
6999;SDS011;3540;53.242;10.408;2023-02-26T01:12:45;5.47;;;1.80;;
6999;SDS011;3540;53.242;10.408;2023-02-26T01:15:11;7.10;;;1.60;;
6999;SDS011;3540;53.242;10.408;2023-02-26T01:20:20;8.20;;;1.90;;
6999;SDS011;3540;53.242;10.408;2023-02-26T01:22:49;5.23;;;1.43;;
6999;SDS011;3540;53.242;10.408;2023-02-26T01:27:50;5.77;;;1.60;;
6999;SDS011;3540;53.242;10.408;2023-02-26T01:30:16;9.67;;;1.90;;
6999;SDS011;3540;53.242;10.408;2023-02-26T01:32:47;5.77;;;1.60;;
6999;SDS011;3540;53.242;10.408;2023-02-26T01:46:21;4.73;;;1.67;;
6999;SDS011;3540;53.242;10.408;2023-02-26T01:48:53;6.63;;;1.97;;
6999;SDS011;3540;53.242;10.408;2023-02-26T01:54:21;5.33;;;1.80;;
6999;SDS011;3540;53.242;10.408;2023-02-26T01:56:51;5.93;;;1.80;;
6999;SDS011;3540;53.242;10.408;2023-02-26T01:59:21;3.47;;;1.40;;
6999;SDS011;3540;53.242;10.408;2023-02-26T02:01:49;6.47;;;2.10;;
6999;SDS011;3540;53.242;10.408;2023-02-26T02:04:18;6.93;;;1.60;;
6999;SDS011;3540;53.242;10.408;2023-02-26T02:06:45;5.83;;;1.80;;
6999;SDS011;3540;53.242;10.408;2023-02-26T02:09:11;8.40;;;1.90;;
6999;SDS011;3540;53.242;10.408;2023-02-26T02:14:40;4.07;;;1.70;;
6999;SDS011;3540;53.242;10.408;2023-02-26T02:19:58;4.87;;;2.03;;
6999;SDS011;3540;53.242;10.408;2023-02-26T02:22:39;8.10;;;2.00;;
6999;SDS011;3540;53.242;10.408;2023-02-26T02:28:20;4.17;;;1.90;;
6999;SDS011;3540;53.242;10.408;2023-02-26T02:33:54;4.30;;;1.67;;
6999;SDS011;3540;53.242;10.408;2023-02-26T02:36:35;4.23;;;1.73;;
6999;SDS011;3540;53.242;10.408;2023-02-26T02:39:10;6.33;;;1.80;;
6999;SDS011;3540;53.242;10.408;2023-02-26T02:41:45;4.17;;;1.50;;
6999;SDS011;3540;53.242;10.408;2023-02-26T02:44:24;3.93;;;1.40;;
6999;SDS011;3540;53.242;10.408;2023-02-26T02:46:52;3.87;;;1.83;;
6999;SDS011;3540;53.242;10.408;2023-02-26T02:49:40;3.53;;;1.40;;
6999;SDS011;3540;53.242;10.408;2023-02-26T02:52:12;4.00;;;1.37;;
6999;SDS011;3540;53.242;10.408;2023-02-26T02:54:48;4.23;;;1.53;;
6999;SDS011;3540;53.242;10.408;2023-02-26T02:57:22;4.30;;;1.57;;
6999;SDS011;3540;53.242;10.408;2023-02-26T02:59:53;5.37;;;1.40;;
6999;SDS011;3540;53.242;10.408;2023-02-26T03:04:57;7.30;;;1.37;;
6999;SDS011;3540;53.242;10.408;2023-02-26T03:07:23;4.73;;;1.40;;
6999;SDS011;3540;53.242;10.408;2023-02-26T03:09:49;6.20;;;1.67;;
6999;SDS011;3540;53.242;10.408;2023-02-26T03:12:15;3.03;;;1.40;;
6999;SDS011;3540;53.242;10.408;2023-02-26T03:14:40;3.33;;;1.37;;
6999;SDS011;3540;53.242;10.408;2023-02-26T03:22:12;5.47;;;1.97;;
6999;SDS011;3540;53.242;10.408;2023-02-26T03:24:57;6.43;;;1.60;;
6999;SDS011;3540;53.242;10.408;2023-02-26T03:33:04;3.30;;;1.40;;
6999;SDS011;3540;53.242;10.408;2023-02-26T03:36:05;6.17;;;1.50;;
6999;SDS011;3540;53.242;10.408;2023-02-26T03:41:35;3.80;;;1.23;;
6999;SDS011;3540;53.242;10.408;2023-02-26T03:44:07;3.43;;;1.23;;
6999;SDS011;3540;53.242;10.408;2023-02-26T03:46:39;2.63;;;1.13;;
6999;SDS011;3540;53.242;10.408;2023-02-26T03:49:11;2.57;;;1.30;;
6999;SDS011;3540;53.242;10.408;2023-02-26T03:51:44;4.77;;;1.40;;
6999;SDS011;3540;53.242;10.408;2023-02-26T03:56:51;4.63;;;1.40;;
6999;SDS011;3540;53.242;10.408;2023-02-26T03:59:18;6.10;;;1.53;;
6999;SDS011;3540;53.242;10.408;2023-02-26T04:01:49;2.80;;;1.20;;
6999;SDS011;3540;53.242;10.408;2023-02-26T04:07:15;3.53;;;1.27;;
6999;SDS011;3540;53.242;10.408;2023-02-26T04:09:43;3.87;;;1.37;;
6999;SDS011;3540;53.242;10.408;2023-02-26T04:12:10;1.30;;;1.10;;
6999;SDS011;3540;53.242;10.408;2023-02-26T04:14:36;2.50;;;1.10;;
6999;SDS011;3540;53.242;10.408;2023-02-26T04:17:02;4.33;;;1.43;;
6999;SDS011;3540;53.242;10.408;2023-02-26T04:19:28;4.23;;;1.37;;
6999;SDS011;3540;53.242;10.408;2023-02-26T04:21:54;2.30;;;1.23;;
6999;SDS011;3540;53.242;10.408;2023-02-26T04:24:19;3.30;;;1.43;;
6999;SDS011;3540;53.242;10.408;2023-02-26T04:26:45;2.00;;;1.30;;
6999;SDS011;3540;53.242;10.408;2023-02-26T04:29:11;2.60;;;1.70;;
6999;SDS011;3540;53.242;10.408;2023-02-26T04:31:36;3.00;;;1.67;;
6999;SDS011;3540;53.242;10.408;2023-02-26T04:34:02;4.50;;;2.07;;
6999;SDS011;3540;53.242;10.408;2023-02-26T04:36:28;6.07;;;1.97;;
6999;SDS011;3540;53.242;10.408;2023-02-26T04:38:53;3.80;;;2.30;;
6999;SDS011;3540;53.242;10.408;2023-02-26T04:41:19;4.87;;;1.70;;
6999;SDS011;3540;53.242;10.408;2023-02-26T04:43:46;5.77;;;2.03;;
6999;SDS011;3540;53.242;10.408;2023-02-26T04:46:11;4.27;;;1.50;;
6999;SDS011;3540;53.242;10.408;2023-02-26T04:48:37;5.80;;;2.07;;
6999;SDS011;3540;53.242;10.408;2023-02-26T04:51:02;4.80;;;1.97;;
6999;SDS011;3540;53.242;10.408;2023-02-26T04:53:28;3.23;;;1.47;;
6999;SDS011;3540;53.242;10.408;2023-02-26T04:55:54;3.17;;;1.70;;
6999;SDS011;3540;53.242;10.408;2023-02-26T04:58:19;3.03;;;1.60;;
6999;SDS011;3540;53.242;10.408;2023-02-26T05:00:48;3.97;;;1.80;;
6999;SDS011;3540;53.242;10.408;2023-02-26T05:03:15;2.67;;;1.13;;
6999;SDS011;3540;53.242;10.408;2023-02-26T05:05:42;3.57;;;1.33;;
6999;SDS011;3540;53.242;10.408;2023-02-26T05:08:08;2.37;;;1.70;;
6999;SDS011;3540;53.242;10.408;2023-02-26T05:10:33;3.40;;;2.07;;
6999;SDS011;3540;53.242;10.408;2023-02-26T05:12:59;6.03;;;1.90;;
6999;SDS011;3540;53.242;10.408;2023-02-26T05:15:25;4.87;;;1.80;;
6999;SDS011;3540;53.242;10.408;2023-02-26T05:17:51;4.77;;;1.53;;
6999;SDS011;3540;53.242;10.408;2023-02-26T05:20:16;3.10;;;1.40;;
6999;SDS011;3540;53.242;10.408;2023-02-26T05:22:42;4.50;;;2.10;;
6999;SDS011;3540;53.242;10.408;2023-02-26T05:25:08;9.33;;;2.67;;
6999;SDS011;3540;53.242;10.408;2023-02-26T05:27:36;5.50;;;1.50;;
6999;SDS011;3540;53.242;10.408;2023-02-26T05:30:02;6.23;;;2.50;;
6999;SDS011;3540;53.242;10.408;2023-02-26T05:32:28;6.17;;;2.60;;
6999;SDS011;3540;53.242;10.408;2023-02-26T05:34:54;8.67;;;3.03;;
6999;SDS011;3540;53.242;10.408;2023-02-26T05:37:19;3.73;;;1.80;;
6999;SDS011;3540;53.242;10.408;2023-02-26T05:39:45;3.67;;;2.13;;
6999;SDS011;3540;53.242;10.408;2023-02-26T05:42:11;4.63;;;1.70;;
6999;SDS011;3540;53.242;10.408;2023-02-26T05:44:36;3.97;;;1.90;;
6999;SDS011;3540;53.242;10.408;2023-02-26T05:47:02;4.17;;;2.10;;
6999;SDS011;3540;53.242;10.408;2023-02-26T05:49:28;4.77;;;2.13;;
6999;SDS011;3540;53.242;10.408;2023-02-26T05:51:53;9.50;;;3.17;;
6999;SDS011;3540;53.242;10.408;2023-02-26T05:54:19;3.97;;;1.90;;
6999;SDS011;3540;53.242;10.408;2023-02-26T05:56:45;5.83;;;2.30;;
6999;SDS011;3540;53.242;10.408;2023-02-26T05:59:10;7.30;;;1.70;;
6999;SDS011;3540;53.242;10.408;2023-02-26T06:01:36;3.93;;;1.87;;
6999;SDS011;3540;53.242;10.408;2023-02-26T06:04:02;5.77;;;1.80;;
6999;SDS011;3540;53.242;10.408;2023-02-26T06:06:28;3.17;;;1.73;;
6999;SDS011;3540;53.242;10.408;2023-02-26T06:08:54;5.90;;;1.70;;
6999;SDS011;3540;53.242;10.408;2023-02-26T06:11:20;4.77;;;1.83;;
6999;SDS011;3540;53.242;10.408;2023-02-26T06:13:46;4.63;;;1.60;;
6999;SDS011;3540;53.242;10.408;2023-02-26T06:16:11;6.20;;;1.40;;
6999;SDS011;3540;53.242;10.408;2023-02-26T06:18:37;2.53;;;1.50;;
6999;SDS011;3540;53.242;10.408;2023-02-26T06:21:02;3.90;;;1.33;;
6999;SDS011;3540;53.242;10.408;2023-02-26T06:23:28;3.47;;;1.40;;
6999;SDS011;3540;53.242;10.408;2023-02-26T06:25:54;5.93;;;1.23;;
6999;SDS011;3540;53.242;10.408;2023-02-26T06:28:20;7.10;;;1.70;;
6999;SDS011;3540;53.242;10.408;2023-02-26T06:30:48;2.07;;;1.20;;
6999;SDS011;3540;53.242;10.408;2023-02-26T06:33:15;6.37;;;1.40;;
6999;SDS011;3540;53.242;10.408;2023-02-26T06:35:41;3.50;;;1.60;;
6999;SDS011;3540;53.242;10.408;2023-02-26T06:38:06;5.63;;;1.70;;
6999;SDS011;3540;53.242;10.408;2023-02-26T06:40:32;4.00;;;1.53;;
6999;SDS011;3540;53.242;10.408;2023-02-26T06:42:58;3.83;;;1.53;;
6999;SDS011;3540;53.242;10.408;2023-02-26T06:45:23;5.20;;;1.50;;
6999;SDS011;3540;53.242;10.408;2023-02-26T06:47:49;4.23;;;1.60;;
6999;SDS011;3540;53.242;10.408;2023-02-26T06:50:15;4.77;;;1.40;;
6999;SDS011;3540;53.242;10.408;2023-02-26T06:52:41;4.60;;;1.40;;
6999;SDS011;3540;53.242;10.408;2023-02-26T06:55:07;1.93;;;1.37;;
6999;SDS011;3540;53.242;10.408;2023-02-26T06:57:33;6.10;;;1.20;;
6999;SDS011;3540;53.242;10.408;2023-02-26T06:59:59;2.77;;;1.30;;
6999;SDS011;3540;53.242;10.408;2023-02-26T07:02:25;4.40;;;1.30;;
6999;SDS011;3540;53.242;10.408;2023-02-26T07:04:50;5.67;;;1.40;;
6999;SDS011;3540;53.242;10.408;2023-02-26T07:07:16;3.40;;;1.50;;
6999;SDS011;3540;53.242;10.408;2023-02-26T07:09:42;3.37;;;1.37;;
6999;SDS011;3540;53.242;10.408;2023-02-26T07:12:08;3.93;;;1.60;;
6999;SDS011;3540;53.242;10.408;2023-02-26T07:14:36;5.93;;;1.67;;
6999;SDS011;3540;53.242;10.408;2023-02-26T07:17:02;2.90;;;1.40;;
6999;SDS011;3540;53.242;10.408;2023-02-26T07:19:28;4.67;;;1.50;;
6999;SDS011;3540;53.242;10.408;2023-02-26T07:21:54;4.33;;;1.60;;
6999;SDS011;3540;53.242;10.408;2023-02-26T07:24:20;6.13;;;1.63;;
6999;SDS011;3540;53.242;10.408;2023-02-26T07:26:46;6.50;;;1.50;;
6999;SDS011;3540;53.242;10.408;2023-02-26T07:29:11;2.13;;;1.50;;
6999;SDS011;3540;53.242;10.408;2023-02-26T07:31:38;3.07;;;1.60;;
6999;SDS011;3540;53.242;10.408;2023-02-26T07:34:04;6.70;;;1.57;;
6999;SDS011;3540;53.242;10.408;2023-02-26T07:36:29;4.27;;;1.70;;
6999;SDS011;3540;53.242;10.408;2023-02-26T07:38:55;5.07;;;1.60;;
6999;SDS011;3540;53.242;10.408;2023-02-26T07:41:21;4.50;;;1.57;;
6999;SDS011;3540;53.242;10.408;2023-02-26T07:43:46;2.30;;;1.30;;
6999;SDS011;3540;53.242;10.408;2023-02-26T07:46:12;5.83;;;1.53;;
6999;SDS011;3540;53.242;10.408;2023-02-26T07:48:37;4.13;;;1.57;;
6999;SDS011;3540;53.242;10.408;2023-02-26T07:51:05;6.13;;;1.63;;
6999;SDS011;3540;53.242;10.408;2023-02-26T07:53:32;3.00;;;1.57;;
6999;SDS011;3540;53.242;10.408;2023-02-26T07:55:58;3.57;;;1.43;;
6999;SDS011;3540;53.242;10.408;2023-02-26T07:58:23;2.40;;;1.40;;
6999;SDS011;3540;53.242;10.408;2023-02-26T08:00:49;7.43;;;2.43;;
6999;SDS011;3540;53.242;10.408;2023-02-26T08:03:16;3.57;;;1.90;;
6999;SDS011;3540;53.242;10.408;2023-02-26T08:05:43;2.43;;;1.20;;
6999;SDS011;3540;53.242;10.408;2023-02-26T08:08:08;2.80;;;1.60;;
6999;SDS011;3540;53.242;10.408;2023-02-26T08:10:34;4.93;;;1.50;;
6999;SDS011;3540;53.242;10.408;2023-02-26T08:13:00;2.43;;;1.40;;
6999;SDS011;3540;53.242;10.408;2023-02-26T08:15:26;5.37;;;1.57;;
6999;SDS011;3540;53.242;10.408;2023-02-26T08:17:52;4.90;;;1.50;;
6999;SDS011;3540;53.242;10.408;2023-02-26T08:20:18;3.00;;;1.40;;
6999;SDS011;3540;53.242;10.408;2023-02-26T08:22:43;3.50;;;1.50;;
6999;SDS011;3540;53.242;10.408;2023-02-26T08:25:09;2.27;;;1.27;;
6999;SDS011;3540;53.242;10.408;2023-02-26T08:27:36;2.77;;;1.30;;
6999;SDS011;3540;53.242;10.408;2023-02-26T08:30:03;3.67;;;1.40;;
6999;SDS011;3540;53.242;10.408;2023-02-26T08:32:31;3.97;;;1.47;;
6999;SDS011;3540;53.242;10.408;2023-02-26T08:34:57;2.70;;;1.30;;
6999;SDS011;3540;53.242;10.408;2023-02-26T08:37:22;2.87;;;1.40;;
6999;SDS011;3540;53.242;10.408;2023-02-26T08:39:48;2.33;;;1.40;;
6999;SDS011;3540;53.242;10.408;2023-02-26T08:42:14;2.53;;;1.23;;
6999;SDS011;3540;53.242;10.408;2023-02-26T08:44:41;5.93;;;1.10;;
6999;SDS011;3540;53.242;10.408;2023-02-26T08:47:07;3.10;;;1.40;;
6999;SDS011;3540;53.242;10.408;2023-02-26T08:49:33;2.23;;;1.30;;
6999;SDS011;3540;53.242;10.408;2023-02-26T08:51:59;4.63;;;1.43;;
6999;SDS011;3540;53.242;10.408;2023-02-26T08:54:24;2.20;;;1.30;;
6999;SDS011;3540;53.242;10.408;2023-02-26T08:56:50;4.00;;;1.60;;
6999;SDS011;3540;53.242;10.408;2023-02-26T08:59:17;3.80;;;1.60;;
6999;SDS011;3540;53.242;10.408;2023-02-26T09:01:43;5.50;;;1.40;;
6999;SDS011;3540;53.242;10.408;2023-02-26T09:04:09;2.17;;;1.40;;
6999;SDS011;3540;53.242;10.408;2023-02-26T09:06:35;2.83;;;1.40;;
6999;SDS011;3540;53.242;10.408;2023-02-26T09:09:00;4.40;;;1.50;;
6999;SDS011;3540;53.242;10.408;2023-02-26T09:11:26;6.10;;;1.67;;
6999;SDS011;3540;53.242;10.408;2023-02-26T09:13:54;2.23;;;1.40;;
6999;SDS011;3540;53.242;10.408;2023-02-26T09:16:22;6.53;;;2.43;;
6999;SDS011;3540;53.242;10.408;2023-02-26T09:18:47;4.07;;;2.03;;
6999;SDS011;3540;53.242;10.408;2023-02-26T09:21:13;4.47;;;1.93;;
6999;SDS011;3540;53.242;10.408;2023-02-26T09:23:39;4.13;;;1.57;;
6999;SDS011;3540;53.242;10.408;2023-02-26T09:26:04;6.03;;;2.57;;
6999;SDS011;3540;53.242;10.408;2023-02-26T09:28:32;5.40;;;2.13;;
6999;SDS011;3540;53.242;10.408;2023-02-26T09:30:58;4.63;;;2.23;;
6999;SDS011;3540;53.242;10.408;2023-02-26T09:33:24;3.13;;;1.50;;
6999;SDS011;3540;53.242;10.408;2023-02-26T09:35:50;4.20;;;1.43;;
6999;SDS011;3540;53.242;10.408;2023-02-26T09:38:16;2.03;;;1.30;;
6999;SDS011;3540;53.242;10.408;2023-02-26T09:40:46;3.10;;;1.50;;
6999;SDS011;3540;53.242;10.408;2023-02-26T09:43:27;2.97;;;1.43;;
6999;SDS011;3540;53.242;10.408;2023-02-26T09:47:02;2.53;;;1.47;;
6999;SDS011;3540;53.242;10.408;2023-02-26T09:49:16;4.00;;;1.90;;
6999;SDS011;3540;53.242;10.408;2023-02-26T09:52:04;3.20;;;1.40;;
6999;SDS011;3540;53.242;10.408;2023-02-26T09:54:55;3.17;;;1.40;;
6999;SDS011;3540;53.242;10.408;2023-02-26T09:57:29;1.77;;;1.13;;
6999;SDS011;3540;53.242;10.408;2023-02-26T09:59:56;3.07;;;1.40;;
6999;SDS011;3540;53.242;10.408;2023-02-26T10:05:09;3.23;;;1.40;;
6999;SDS011;3540;53.242;10.408;2023-02-26T10:08:01;4.03;;;1.57;;
6999;SDS011;3540;53.242;10.408;2023-02-26T10:13:42;7.23;;;1.93;;
6999;SDS011;3540;53.242;10.408;2023-02-26T10:16:32;3.77;;;1.47;;
6999;SDS011;3540;53.242;10.408;2023-02-26T10:19:15;1.80;;;1.20;;
6999;SDS011;3540;53.242;10.408;2023-02-26T10:22:27;2.37;;;1.20;;
6999;SDS011;3540;53.242;10.408;2023-02-26T10:24:54;3.03;;;1.07;;
6999;SDS011;3540;53.242;10.408;2023-02-26T10:36:43;1.43;;;1.10;;
6999;SDS011;3540;53.242;10.408;2023-02-26T10:39:00;4.03;;;1.10;;
6999;SDS011;3540;53.242;10.408;2023-02-26T10:41:28;2.57;;;1.37;;
6999;SDS011;3540;53.242;10.408;2023-02-26T10:44:04;4.30;;;1.17;;
6999;SDS011;3540;53.242;10.408;2023-02-26T10:46:45;3.30;;;1.10;;
6999;SDS011;3540;53.242;10.408;2023-02-26T10:49:41;1.17;;;1.03;;
6999;SDS011;3540;53.242;10.408;2023-02-26T10:52:16;2.80;;;1.27;;
6999;SDS011;3540;53.242;10.408;2023-02-26T10:57:52;1.57;;;1.00;;
6999;SDS011;3540;53.242;10.408;2023-02-26T11:00:28;1.63;;;0.90;;
6999;SDS011;3540;53.242;10.408;2023-02-26T11:02:54;1.37;;;1.07;;
6999;SDS011;3540;53.242;10.408;2023-02-26T11:05:23;2.20;;;1.00;;
6999;SDS011;3540;53.242;10.408;2023-02-26T11:07:56;2.47;;;1.10;;
6999;SDS011;3540;53.242;10.408;2023-02-26T11:10:27;1.63;;;1.20;;
6999;SDS011;3540;53.242;10.408;2023-02-26T11:13:04;1.77;;;1.20;;
6999;SDS011;3540;53.242;10.408;2023-02-26T11:15:29;2.53;;;1.53;;
6999;SDS011;3540;53.242;10.408;2023-02-26T11:17:56;3.10;;;1.60;;
6999;SDS011;3540;53.242;10.408;2023-02-26T11:20:32;3.53;;;1.60;;
6999;SDS011;3540;53.242;10.408;2023-02-26T11:23:01;1.53;;;1.30;;
6999;SDS011;3540;53.242;10.408;2023-02-26T11:25:30;3.43;;;1.00;;
6999;SDS011;3540;53.242;10.408;2023-02-26T11:28:09;1.73;;;1.10;;
6999;SDS011;3540;53.242;10.408;2023-02-26T11:30:56;2.40;;;1.10;;
6999;SDS011;3540;53.242;10.408;2023-02-26T11:33:33;2.00;;;1.00;;
6999;SDS011;3540;53.242;10.408;2023-02-26T11:36:02;2.63;;;1.30;;
6999;SDS011;3540;53.242;10.408;2023-02-26T11:38:33;3.23;;;1.20;;
6999;SDS011;3540;53.242;10.408;2023-02-26T11:40:59;1.00;;;0.90;;
6999;SDS011;3540;53.242;10.408;2023-02-26T11:43:26;0.90;;;0.90;;
6999;SDS011;3540;53.242;10.408;2023-02-26T11:46:00;1.57;;;1.10;;
6999;SDS011;3540;53.242;10.408;2023-02-26T11:48:28;2.13;;;1.00;;
6999;SDS011;3540;53.242;10.408;2023-02-26T11:51:03;3.77;;;1.10;;
6999;SDS011;3540;53.242;10.408;2023-02-26T11:53:36;2.43;;;1.10;;
6999;SDS011;3540;53.242;10.408;2023-02-26T11:56:29;2.90;;;1.20;;
6999;SDS011;3540;53.242;10.408;2023-02-26T11:59:00;2.00;;;1.00;;
6999;SDS011;3540;53.242;10.408;2023-02-26T12:01:32;3.17;;;0.90;;
6999;SDS011;3540;53.242;10.408;2023-02-26T12:04:00;3.40;;;1.00;;
6999;SDS011;3540;53.242;10.408;2023-02-26T12:06:26;2.60;;;1.20;;
6999;SDS011;3540;53.242;10.408;2023-02-26T12:08:52;2.67;;;1.30;;
6999;SDS011;3540;53.242;10.408;2023-02-26T12:19:48;1.77;;;1.33;;
6999;SDS011;3540;53.242;10.408;2023-02-26T12:55:21;0.80;;;0.80;;
6999;SDS011;3540;53.242;10.408;2023-02-26T12:58:03;1.63;;;1.10;;
6999;SDS011;3540;53.242;10.408;2023-02-26T13:10:01;1.30;;;0.90;;
6999;SDS011;3540;53.242;10.408;2023-02-26T13:15:00;2.30;;;1.20;;
6999;SDS011;3540;53.242;10.408;2023-02-26T13:20:25;2.67;;;1.40;;
6999;SDS011;3540;53.242;10.408;2023-02-26T13:27:51;2.30;;;1.37;;
6999;SDS011;3540;53.242;10.408;2023-02-26T13:32:57;3.27;;;1.40;;
6999;SDS011;3540;53.242;10.408;2023-02-26T13:35:27;0.93;;;0.90;;
6999;SDS011;3540;53.242;10.408;2023-02-26T13:37:57;1.77;;;1.10;;
6999;SDS011;3540;53.242;10.408;2023-02-26T13:42:59;2.90;;;1.10;;
6999;SDS011;3540;53.242;10.408;2023-02-26T13:51:00;2.57;;;1.20;;
6999;SDS011;3540;53.242;10.408;2023-02-26T13:58:40;5.77;;;1.50;;
6999;SDS011;3540;53.242;10.408;2023-02-26T14:02:16;2.90;;;1.30;;
6999;SDS011;3540;53.242;10.408;2023-02-26T14:06:51;4.63;;;1.67;;
6999;SDS011;3540;53.242;10.408;2023-02-26T14:16:49;4.77;;;1.50;;
6999;SDS011;3540;53.242;10.408;2023-02-26T14:19:34;2.80;;;1.33;;
6999;SDS011;3540;53.242;10.408;2023-02-26T14:22:18;3.47;;;1.50;;
6999;SDS011;3540;53.242;10.408;2023-02-26T14:25:03;2.20;;;1.20;;
6999;SDS011;3540;53.242;10.408;2023-02-26T14:27:32;2.40;;;1.30;;
6999;SDS011;3540;53.242;10.408;2023-02-26T14:32:49;3.47;;;1.50;;
6999;SDS011;3540;53.242;10.408;2023-02-26T14:35:39;3.00;;;1.33;;
6999;SDS011;3540;53.242;10.408;2023-02-26T14:38:20;4.00;;;1.33;;
6999;SDS011;3540;53.242;10.408;2023-02-26T14:40:55;3.80;;;1.40;;
6999;SDS011;3540;53.242;10.408;2023-02-26T14:43:40;3.83;;;1.60;;
6999;SDS011;3540;53.242;10.408;2023-02-26T14:46:08;3.33;;;1.20;;
6999;SDS011;3540;53.242;10.408;2023-02-26T14:48:36;2.87;;;1.33;;
6999;SDS011;3540;53.242;10.408;2023-02-26T15:02:26;2.63;;;1.37;;
6999;SDS011;3540;53.242;10.408;2023-02-26T15:18:58;2.50;;;1.40;;
6999;SDS011;3540;53.242;10.408;2023-02-26T15:22:00;3.97;;;1.47;;
6999;SDS011;3540;53.242;10.408;2023-02-26T15:24:28;5.00;;;1.80;;
6999;SDS011;3540;53.242;10.408;2023-02-26T15:26:56;3.30;;;1.90;;
6999;SDS011;3540;53.242;10.408;2023-02-26T15:29:26;2.13;;;1.20;;
6999;SDS011;3540;53.242;10.408;2023-02-26T15:31:58;2.83;;;1.40;;
6999;SDS011;3540;53.242;10.408;2023-02-26T15:34:29;2.83;;;1.27;;
6999;SDS011;3540;53.242;10.408;2023-02-26T15:36:55;5.57;;;1.53;;
6999;SDS011;3540;53.242;10.408;2023-02-26T15:39:22;7.93;;;1.60;;
6999;SDS011;3540;53.242;10.408;2023-02-26T15:41:49;3.80;;;1.37;;
6999;SDS011;3540;53.242;10.408;2023-02-26T15:44:29;3.10;;;1.47;;
6999;SDS011;3540;53.242;10.408;2023-02-26T15:46:57;4.60;;;1.70;;
6999;SDS011;3540;53.242;10.408;2023-02-26T15:49:27;3.90;;;1.30;;
6999;SDS011;3540;53.242;10.408;2023-02-26T15:51:58;3.50;;;1.40;;
6999;SDS011;3540;53.242;10.408;2023-02-26T15:54:28;3.90;;;1.40;;
6999;SDS011;3540;53.242;10.408;2023-02-26T15:57:05;2.93;;;1.50;;
6999;SDS011;3540;53.242;10.408;2023-02-26T15:59:33;2.93;;;1.40;;
6999;SDS011;3540;53.242;10.408;2023-02-26T16:02:07;3.33;;;1.83;;
6999;SDS011;3540;53.242;10.408;2023-02-26T16:04:39;3.27;;;1.70;;
6999;SDS011;3540;53.242;10.408;2023-02-26T16:07:08;6.17;;;1.80;;
6999;SDS011;3540;53.242;10.408;2023-02-26T16:09:35;6.33;;;2.27;;
6999;SDS011;3540;53.242;10.408;2023-02-26T16:12:05;3.43;;;1.93;;
6999;SDS011;3540;53.242;10.408;2023-02-26T16:14:37;5.60;;;1.80;;
6999;SDS011;3540;53.242;10.408;2023-02-26T16:17:06;3.43;;;1.60;;
6999;SDS011;3540;53.242;10.408;2023-02-26T16:19:37;3.63;;;1.57;;
6999;SDS011;3540;53.242;10.408;2023-02-26T16:22:18;2.63;;;1.60;;
6999;SDS011;3540;53.242;10.408;2023-02-26T16:25:00;3.93;;;1.50;;
6999;SDS011;3540;53.242;10.408;2023-02-26T16:27:30;4.00;;;1.70;;
6999;SDS011;3540;53.242;10.408;2023-02-26T16:29:58;4.83;;;1.73;;
6999;SDS011;3540;53.242;10.408;2023-02-26T16:32:25;4.20;;;2.10;;
6999;SDS011;3540;53.242;10.408;2023-02-26T16:34:55;4.00;;;1.80;;
6999;SDS011;3540;53.242;10.408;2023-02-26T16:42:53;4.27;;;1.70;;
6999;SDS011;3540;53.242;10.408;2023-02-26T16:50:38;7.67;;;1.70;;
6999;SDS011;3540;53.242;10.408;2023-02-26T16:55:37;5.00;;;1.73;;
6999;SDS011;3540;53.242;10.408;2023-02-26T16:58:05;5.23;;;1.70;;
6999;SDS011;3540;53.242;10.408;2023-02-26T17:00:37;5.33;;;2.10;;
6999;SDS011;3540;53.242;10.408;2023-02-26T17:03:13;5.57;;;2.40;;
6999;SDS011;3540;53.242;10.408;2023-02-26T17:08:41;5.73;;;2.40;;
6999;SDS011;3540;53.242;10.408;2023-02-26T17:11:27;5.43;;;2.17;;
6999;SDS011;3540;53.242;10.408;2023-02-26T17:14:27;7.63;;;2.30;;
6999;SDS011;3540;53.242;10.408;2023-02-26T17:16:49;4.57;;;2.10;;
6999;SDS011;3540;53.242;10.408;2023-02-26T17:19:16;5.30;;;1.73;;
6999;SDS011;3540;53.242;10.408;2023-02-26T17:21:44;4.40;;;2.03;;
6999;SDS011;3540;53.242;10.408;2023-02-26T17:24:15;4.53;;;2.03;;
6999;SDS011;3540;53.242;10.408;2023-02-26T17:26:43;5.57;;;2.20;;
6999;SDS011;3540;53.242;10.408;2023-02-26T17:29:17;6.30;;;2.33;;
6999;SDS011;3540;53.242;10.408;2023-02-26T17:31:47;7.10;;;2.17;;
6999;SDS011;3540;53.242;10.408;2023-02-26T17:34:13;3.40;;;2.10;;
6999;SDS011;3540;53.242;10.408;2023-02-26T17:36:38;6.13;;;2.63;;
6999;SDS011;3540;53.242;10.408;2023-02-26T17:39:04;2.73;;;1.87;;
6999;SDS011;3540;53.242;10.408;2023-02-26T17:41:30;6.10;;;2.40;;
6999;SDS011;3540;53.242;10.408;2023-02-26T17:43:55;6.27;;;2.50;;
6999;SDS011;3540;53.242;10.408;2023-02-26T17:46:21;5.00;;;2.10;;
6999;SDS011;3540;53.242;10.408;2023-02-26T17:48:47;6.00;;;2.57;;
6999;SDS011;3540;53.242;10.408;2023-02-26T17:51:12;6.83;;;2.60;;
6999;SDS011;3540;53.242;10.408;2023-02-26T17:53:39;7.20;;;2.43;;
6999;SDS011;3540;53.242;10.408;2023-02-26T17:56:14;5.70;;;2.43;;
6999;SDS011;3540;53.242;10.408;2023-02-26T17:58:45;7.90;;;2.67;;
6999;SDS011;3540;53.242;10.408;2023-02-26T18:01:12;6.30;;;2.30;;
6999;SDS011;3540;53.242;10.408;2023-02-26T18:03:38;5.60;;;2.57;;
6999;SDS011;3540;53.242;10.408;2023-02-26T18:06:04;4.37;;;2.40;;
6999;SDS011;3540;53.242;10.408;2023-02-26T18:08:31;8.47;;;2.90;;
6999;SDS011;3540;53.242;10.408;2023-02-26T18:10:59;8.10;;;2.60;;
6999;SDS011;3540;53.242;10.408;2023-02-26T18:13:25;3.93;;;2.27;;
6999;SDS011;3540;53.242;10.408;2023-02-26T18:15:52;5.77;;;2.37;;
6999;SDS011;3540;53.242;10.408;2023-02-26T18:18:19;6.13;;;2.80;;
6999;SDS011;3540;53.242;10.408;2023-02-26T18:20:46;6.80;;;2.97;;
6999;SDS011;3540;53.242;10.408;2023-02-26T18:23:12;8.53;;;3.00;;
6999;SDS011;3540;53.242;10.408;2023-02-26T18:25:40;6.43;;;2.60;;
6999;SDS011;3540;53.242;10.408;2023-02-26T18:28:14;6.07;;;3.07;;
6999;SDS011;3540;53.242;10.408;2023-02-26T18:30:42;4.57;;;2.60;;
6999;SDS011;3540;53.242;10.408;2023-02-26T18:33:09;5.57;;;2.67;;
6999;SDS011;3540;53.242;10.408;2023-02-26T18:35:36;11.80;;;6.07;;
6999;SDS011;3540;53.242;10.408;2023-02-26T18:38:03;7.57;;;3.73;;
6999;SDS011;3540;53.242;10.408;2023-02-26T18:40:29;7.93;;;2.93;;
6999;SDS011;3540;53.242;10.408;2023-02-26T18:42:54;6.67;;;2.97;;
6999;SDS011;3540;53.242;10.408;2023-02-26T18:45:21;7.07;;;2.90;;
6999;SDS011;3540;53.242;10.408;2023-02-26T18:47:46;7.60;;;3.27;;
6999;SDS011;3540;53.242;10.408;2023-02-26T18:50:13;8.83;;;2.80;;